sensor_id;sensor_type;location;lat;lon;timestamp;P1;durP1;ratioP1;P2;durP2;ratioP2
32613;SDS011;19031;51.400;6.770;2023-05-10T00:00:07;9.25;;;4.80;;
32613;SDS011;19031;51.400;6.770;2023-05-10T00:02:34;10.95;;;5.10;;
32613;SDS011;19031;51.400;6.770;2023-05-10T00:04:59;10.93;;;5.22;;
32613;SDS011;19031;51.400;6.770;2023-05-10T00:07:26;10.35;;;5.15;;
32613;SDS011;19031;51.400;6.770;2023-05-10T00:09:51;10.38;;;5.53;;
32613;SDS011;19031;51.400;6.770;2023-05-10T00:12:17;12.93;;;6.13;;
32613;SDS011;19031;51.400;6.770;2023-05-10T00:14:42;9.57;;;5.60;;
32613;SDS011;19031;51.400;6.770;2023-05-10T00:17:08;11.88;;;5.03;;
32613;SDS011;19031;51.400;6.770;2023-05-10T00:19:34;9.65;;;5.18;;
32613;SDS011;19031;51.400;6.770;2023-05-10T00:21:59;11.63;;;5.90;;
32613;SDS011;19031;51.400;6.770;2023-05-10T00:24:25;8.80;;;4.47;;
32613;SDS011;19031;51.400;6.770;2023-05-10T00:26:50;8.93;;;5.00;;
32613;SDS011;19031;51.400;6.770;2023-05-10T00:29:16;8.82;;;5.15;;
32613;SDS011;19031;51.400;6.770;2023-05-10T00:31:41;8.73;;;5.10;;
32613;SDS011;19031;51.400;6.770;2023-05-10T00:34:07;10.18;;;5.50;;
32613;SDS011;19031;51.400;6.770;2023-05-10T00:36:32;8.73;;;5.07;;
32613;SDS011;19031;51.400;6.770;2023-05-10T00:38:58;7.70;;;4.60;;
32613;SDS011;19031;51.400;6.770;2023-05-10T00:41:23;9.30;;;5.18;;
32613;SDS011;19031;51.400;6.770;2023-05-10T00:43:49;7.72;;;4.65;;
32613;SDS011;19031;51.400;6.770;2023-05-10T00:46:15;10.70;;;5.18;;
32613;SDS011;19031;51.400;6.770;2023-05-10T00:48:41;8.95;;;4.35;;
32613;SDS011;19031;51.400;6.770;2023-05-10T00:51:07;9.82;;;4.75;;
32613;SDS011;19031;51.400;6.770;2023-05-10T00:53:32;9.43;;;4.95;;
32613;SDS011;19031;51.400;6.770;2023-05-10T00:55:59;9.25;;;4.63;;
32613;SDS011;19031;51.400;6.770;2023-05-10T00:58:26;9.10;;;5.07;;
32613;SDS011;19031;51.400;6.770;2023-05-10T01:00:53;11.07;;;5.85;;
32613;SDS011;19031;51.400;6.770;2023-05-10T01:03:20;13.57;;;6.20;;
32613;SDS011;19031;51.400;6.770;2023-05-10T01:05:46;10.20;;;5.13;;
32613;SDS011;19031;51.400;6.770;2023-05-10T01:08:11;10.30;;;5.20;;
32613;SDS011;19031;51.400;6.770;2023-05-10T01:10:37;12.05;;;5.45;;
32613;SDS011;19031;51.400;6.770;2023-05-10T01:13:02;13.68;;;6.53;;
32613;SDS011;19031;51.400;6.770;2023-05-10T01:15:28;12.43;;;5.68;;
32613;SDS011;19031;51.400;6.770;2023-05-10T01:17:55;11.35;;;5.90;;
32613;SDS011;19031;51.400;6.770;2023-05-10T01:20:21;13.70;;;6.15;;
32613;SDS011;19031;51.400;6.770;2023-05-10T01:28:33;11.98;;;5.72;;
32613;SDS011;19031;51.400;6.770;2023-05-10T01:31:35;11.68;;;5.97;;
32613;SDS011;19031;51.400;6.770;2023-05-10T01:34:47;11.98;;;6.00;;
32613;SDS011;19031;51.400;6.770;2023-05-10T01:37:36;12.15;;;6.60;;
32613;SDS011;19031;51.400;6.770;2023-05-10T01:40:23;15.07;;;6.35;;
32613;SDS011;19031;51.400;6.770;2023-05-10T01:43:11;12.80;;;5.68;;
32613;SDS011;19031;51.400;6.770;2023-05-10T01:45:54;11.50;;;6.13;;
32613;SDS011;19031;51.400;6.770;2023-05-10T01:48:29;12.02;;;6.07;;
32613;SDS011;19031;51.400;6.770;2023-05-10T01:50:56;8.05;;;5.00;;
32613;SDS011;19031;51.400;6.770;2023-05-10T01:53:23;11.98;;;5.70;;
32613;SDS011;19031;51.400;6.770;2023-05-10T01:55:51;9.85;;;5.18;;
32613;SDS011;19031;51.400;6.770;2023-05-10T01:58:20;11.07;;;6.07;;
32613;SDS011;19031;51.400;6.770;2023-05-10T02:00:52;11.85;;;6.20;;
32613;SDS011;19031;51.400;6.770;2023-05-10T02:03:22;14.15;;;7.45;;
32613;SDS011;19031;51.400;6.770;2023-05-10T02:05:50;14.65;;;7.60;;
32613;SDS011;19031;51.400;6.770;2023-05-10T02:08:17;15.00;;;7.13;;
32613;SDS011;19031;51.400;6.770;2023-05-10T02:10:44;11.88;;;5.75;;
32613;SDS011;19031;51.400;6.770;2023-05-10T02:13:11;11.93;;;5.82;;
32613;SDS011;19031;51.400;6.770;2023-05-10T02:15:39;15.30;;;7.97;;
32613;SDS011;19031;51.400;6.770;2023-05-10T02:18:06;15.77;;;7.07;;
32613;SDS011;19031;51.400;6.770;2023-05-10T02:20:34;13.82;;;6.93;;
32613;SDS011;19031;51.400;6.770;2023-05-10T02:23:01;13.00;;;6.07;;
32613;SDS011;19031;51.400;6.770;2023-05-10T02:25:28;16.27;;;7.40;;
32613;SDS011;19031;51.400;6.770;2023-05-10T02:27:55;11.65;;;6.78;;
32613;SDS011;19031;51.400;6.770;2023-05-10T02:30:22;12.57;;;6.65;;
32613;SDS011;19031;51.400;6.770;2023-05-10T02:32:48;10.63;;;5.72;;
32613;SDS011;19031;51.400;6.770;2023-05-10T02:35:15;10.52;;;5.60;;
32613;SDS011;19031;51.400;6.770;2023-05-10T02:37:41;13.15;;;6.13;;
32613;SDS011;19031;51.400;6.770;2023-05-10T02:40:08;11.63;;;6.78;;
32613;SDS011;19031;51.400;6.770;2023-05-10T02:42:36;10.52;;;5.57;;
32613;SDS011;19031;51.400;6.770;2023-05-10T02:45:13;12.48;;;6.25;;
32613;SDS011;19031;51.400;6.770;2023-05-10T02:47:43;10.40;;;4.95;;
32613;SDS011;19031;51.400;6.770;2023-05-10T02:50:09;11.48;;;6.97;;
32613;SDS011;19031;51.400;6.770;2023-05-10T02:52:46;12.07;;;6.65;;
32613;SDS011;19031;51.400;6.770;2023-05-10T02:55:15;13.60;;;7.10;;
32613;SDS011;19031;51.400;6.770;2023-05-10T02:57:43;13.55;;;7.38;;
32613;SDS011;19031;51.400;6.770;2023-05-10T03:00:13;11.23;;;5.70;;
32613;SDS011;19031;51.400;6.770;2023-05-10T03:02:39;13.27;;;6.65;;
32613;SDS011;19031;51.400;6.770;2023-05-10T03:05:05;11.35;;;6.55;;
32613;SDS011;19031;51.400;6.770;2023-05-10T03:07:31;13.10;;;7.03;;
32613;SDS011;19031;51.400;6.770;2023-05-10T03:09:58;15.00;;;6.85;;
32613;SDS011;19031;51.400;6.770;2023-05-10T03:18:12;15.90;;;6.53;;
32613;SDS011;19031;51.400;6.770;2023-05-10T03:21:01;10.60;;;5.65;;
32613;SDS011;19031;51.400;6.770;2023-05-10T03:23:35;12.48;;;6.35;;
32613;SDS011;19031;51.400;6.770;2023-05-10T03:28:32;11.65;;;5.47;;
32613;SDS011;19031;51.400;6.770;2023-05-10T03:30:59;14.80;;;6.20;;
32613;SDS011;19031;51.400;6.770;2023-05-10T03:33:25;11.07;;;4.85;;
32613;SDS011;19031;51.400;6.770;2023-05-10T03:35:51;14.45;;;6.93;;
32613;SDS011;19031;51.400;6.770;2023-05-10T03:38:16;12.55;;;5.03;;
32613;SDS011;19031;51.400;6.770;2023-05-10T03:40:42;13.10;;;6.68;;
32613;SDS011;19031;51.400;6.770;2023-05-10T03:43:08;13.20;;;6.40;;
32613;SDS011;19031;51.400;6.770;2023-05-10T03:45:33;15.40;;;6.97;;
32613;SDS011;19031;51.400;6.770;2023-05-10T03:47:59;11.70;;;6.13;;
32613;SDS011;19031;51.400;6.770;2023-05-10T03:50:25;13.25;;;5.72;;
32613;SDS011;19031;51.400;6.770;2023-05-10T03:52:51;13.27;;;6.68;;
32613;SDS011;19031;51.400;6.770;2023-05-10T03:55:16;13.20;;;7.13;;
32613;SDS011;19031;51.400;6.770;2023-05-10T03:57:42;16.00;;;7.78;;
32613;SDS011;19031;51.400;6.770;2023-05-10T04:00:08;14.68;;;7.32;;
32613;SDS011;19031;51.400;6.770;2023-05-10T04:02:34;14.05;;;5.88;;
32613;SDS011;19031;51.400;6.770;2023-05-10T04:05:00;13.85;;;7.35;;
32613;SDS011;19031;51.400;6.770;2023-05-10T04:07:26;15.65;;;7.85;;
32613;SDS011;19031;51.400;6.770;2023-05-10T04:09:51;15.95;;;7.72;;
32613;SDS011;19031;51.400;6.770;2023-05-10T04:12:17;13.73;;;7.38;;
32613;SDS011;19031;51.400;6.770;2023-05-10T04:14:42;13.75;;;7.82;;
32613;SDS011;19031;51.400;6.770;2023-05-10T04:17:08;19.17;;;8.73;;
32613;SDS011;19031;51.400;6.770;2023-05-10T04:19:34;21.40;;;7.57;;
32613;SDS011;19031;51.400;6.770;2023-05-10T04:21:59;16.67;;;9.13;;
32613;SDS011;19031;51.400;6.770;2023-05-10T04:24:26;18.13;;;8.52;;
32613;SDS011;19031;51.400;6.770;2023-05-10T04:26:53;18.17;;;8.13;;
32613;SDS011;19031;51.400;6.770;2023-05-10T04:29:19;16.33;;;7.28;;
32613;SDS011;19031;51.400;6.770;2023-05-10T04:31:45;16.50;;;8.65;;
32613;SDS011;19031;51.400;6.770;2023-05-10T04:34:10;18.73;;;7.85;;
32613;SDS011;19031;51.400;6.770;2023-05-10T04:36:36;22.67;;;8.10;;
32613;SDS011;19031;51.400;6.770;2023-05-10T04:39:02;20.88;;;8.40;;
32613;SDS011;19031;51.400;6.770;2023-05-10T04:41:28;18.05;;;8.73;;
32613;SDS011;19031;51.400;6.770;2023-05-10T04:43:54;18.48;;;8.40;;
32613;SDS011;19031;51.400;6.770;2023-05-10T04:46:20;27.27;;;10.38;;
32613;SDS011;19031;51.400;6.770;2023-05-10T04:48:45;21.30;;;9.43;;
32613;SDS011;19031;51.400;6.770;2023-05-10T04:51:11;19.50;;;9.23;;
32613;SDS011;19031;51.400;6.770;2023-05-10T04:53:37;29.75;;;10.05;;
32613;SDS011;19031;51.400;6.770;2023-05-10T04:56:02;25.75;;;11.18;;
32613;SDS011;19031;51.400;6.770;2023-05-10T04:58:28;22.88;;;10.95;;
32613;SDS011;19031;51.400;6.770;2023-05-10T05:00:54;22.88;;;12.20;;
32613;SDS011;19031;51.400;6.770;2023-05-10T05:03:19;28.10;;;11.48;;
32613;SDS011;19031;51.400;6.770;2023-05-10T05:05:45;27.20;;;11.65;;
32613;SDS011;19031;51.400;6.770;2023-05-10T05:08:11;30.05;;;11.00;;
32613;SDS011;19031;51.400;6.770;2023-05-10T05:10:36;23.58;;;10.95;;
32613;SDS011;19031;51.400;6.770;2023-05-10T05:13:02;25.17;;;10.45;;
32613;SDS011;19031;51.400;6.770;2023-05-10T05:15:28;26.42;;;10.82;;
32613;SDS011;19031;51.400;6.770;2023-05-10T05:17:54;26.23;;;10.93;;
32613;SDS011;19031;51.400;6.770;2023-05-10T05:20:20;26.92;;;10.95;;
32613;SDS011;19031;51.400;6.770;2023-05-10T05:22:46;23.70;;;10.23;;
32613;SDS011;19031;51.400;6.770;2023-05-10T05:25:11;25.15;;;10.25;;
32613;SDS011;19031;51.400;6.770;2023-05-10T05:27:37;24.05;;;10.65;;
32613;SDS011;19031;51.400;6.770;2023-05-10T05:30:04;23.13;;;11.43;;
32613;SDS011;19031;51.400;6.770;2023-05-10T05:32:30;24.02;;;11.35;;
32613;SDS011;19031;51.400;6.770;2023-05-10T05:34:56;25.38;;;11.00;;
32613;SDS011;19031;51.400;6.770;2023-05-10T05:37:21;25.85;;;10.98;;
32613;SDS011;19031;51.400;6.770;2023-05-10T05:39:47;26.60;;;11.60;;
32613;SDS011;19031;51.400;6.770;2023-05-10T05:42:13;22.05;;;10.07;;
32613;SDS011;19031;51.400;6.770;2023-05-10T05:44:41;23.27;;;11.73;;
32613;SDS011;19031;51.400;6.770;2023-05-10T05:47:06;28.63;;;11.93;;
32613;SDS011;19031;51.400;6.770;2023-05-10T05:49:32;28.63;;;12.00;;
32613;SDS011;19031;51.400;6.770;2023-05-10T05:51:58;26.50;;;11.60;;
32613;SDS011;19031;51.400;6.770;2023-05-10T05:54:25;24.75;;;11.32;;
32613;SDS011;19031;51.400;6.770;2023-05-10T05:56:53;24.17;;;10.23;;
32613;SDS011;19031;51.400;6.770;2023-05-10T05:59:20;23.52;;;10.20;;
32613;SDS011;19031;51.400;6.770;2023-05-10T06:01:46;24.10;;;9.95;;
32613;SDS011;19031;51.400;6.770;2023-05-10T06:04:11;22.95;;;11.52;;
32613;SDS011;19031;51.400;6.770;2023-05-10T06:06:40;26.75;;;11.55;;
32613;SDS011;19031;51.400;6.770;2023-05-10T06:09:05;24.60;;;11.13;;
32613;SDS011;19031;51.400;6.770;2023-05-10T06:11:31;31.35;;;12.25;;
32613;SDS011;19031;51.400;6.770;2023-05-10T06:13:57;27.77;;;11.63;;
32613;SDS011;19031;51.400;6.770;2023-05-10T06:16:23;29.15;;;12.02;;
32613;SDS011;19031;51.400;6.770;2023-05-10T06:18:48;36.38;;;14.18;;
32613;SDS011;19031;51.400;6.770;2023-05-10T06:21:14;34.97;;;12.32;;
32613;SDS011;19031;51.400;6.770;2023-05-10T06:23:41;36.58;;;14.25;;
32613;SDS011;19031;51.400;6.770;2023-05-10T06:26:06;31.30;;;13.38;;
32613;SDS011;19031;51.400;6.770;2023-05-10T06:28:32;33.13;;;13.38;;
32613;SDS011;19031;51.400;6.770;2023-05-10T06:30:58;29.10;;;11.65;;
32613;SDS011;19031;51.400;6.770;2023-05-10T06:33:24;35.03;;;13.57;;
32613;SDS011;19031;51.400;6.770;2023-05-10T06:35:50;34.55;;;12.77;;
32613;SDS011;19031;51.400;6.770;2023-05-10T06:38:15;32.85;;;13.15;;
32613;SDS011;19031;51.400;6.770;2023-05-10T06:40:41;32.97;;;12.38;;
32613;SDS011;19031;51.400;6.770;2023-05-10T06:43:07;35.33;;;13.70;;
32613;SDS011;19031;51.400;6.770;2023-05-10T06:45:32;37.10;;;13.75;;
32613;SDS011;19031;51.400;6.770;2023-05-10T06:47:58;26.88;;;11.40;;
32613;SDS011;19031;51.400;6.770;2023-05-10T06:50:23;31.33;;;12.48;;
32613;SDS011;19031;51.400;6.770;2023-05-10T06:52:49;28.58;;;12.07;;
32613;SDS011;19031;51.400;6.770;2023-05-10T06:55:14;34.90;;;12.63;;
32613;SDS011;19031;51.400;6.770;2023-05-10T06:57:40;31.08;;;12.60;;
32613;SDS011;19031;51.400;6.770;2023-05-10T07:00:09;29.48;;;12.52;;
32613;SDS011;19031;51.400;6.770;2023-05-10T07:02:35;33.78;;;12.75;;
32613;SDS011;19031;51.400;6.770;2023-05-10T07:05:01;32.28;;;13.27;;
32613;SDS011;19031;51.400;6.770;2023-05-10T07:07:27;34.83;;;13.07;;
32613;SDS011;19031;51.400;6.770;2023-05-10T07:09:56;29.13;;;13.18;;
32613;SDS011;19031;51.400;6.770;2023-05-10T07:12:22;25.83;;;12.40;;
32613;SDS011;19031;51.400;6.770;2023-05-10T07:14:48;29.92;;;11.95;;
32613;SDS011;19031;51.400;6.770;2023-05-10T07:17:14;28.42;;;11.10;;
32613;SDS011;19031;51.400;6.770;2023-05-10T07:19:43;33.55;;;12.25;;
32613;SDS011;19031;51.400;6.770;2023-05-10T07:22:09;22.92;;;9.65;;
32613;SDS011;19031;51.400;6.770;2023-05-10T07:24:34;26.00;;;9.93;;
32613;SDS011;19031;51.400;6.770;2023-05-10T07:27:00;25.13;;;8.95;;
32613;SDS011;19031;51.400;6.770;2023-05-10T07:29:29;19.20;;;9.05;;
32613;SDS011;19031;51.400;6.770;2023-05-10T07:31:55;26.45;;;9.85;;
32613;SDS011;19031;51.400;6.770;2023-05-10T07:34:20;31.35;;;11.07;;
32613;SDS011;19031;51.400;6.770;2023-05-10T07:36:46;24.83;;;9.32;;
32613;SDS011;19031;51.400;6.770;2023-05-10T07:39:15;28.50;;;11.25;;
32613;SDS011;19031;51.400;6.770;2023-05-10T07:41:41;23.70;;;10.88;;
32613;SDS011;19031;51.400;6.770;2023-05-10T07:44:09;24.13;;;10.13;;
32613;SDS011;19031;51.400;6.770;2023-05-10T07:46:35;26.90;;;10.05;;
32613;SDS011;19031;51.400;6.770;2023-05-10T07:49:00;23.52;;;9.48;;
32613;SDS011;19031;51.400;6.770;2023-05-10T07:51:26;25.77;;;10.00;;
32613;SDS011;19031;51.400;6.770;2023-05-10T07:53:53;22.77;;;11.05;;
32613;SDS011;19031;51.400;6.770;2023-05-10T07:56:28;26.05;;;10.65;;
32613;SDS011;19031;51.400;6.770;2023-05-10T07:58:56;27.05;;;9.73;;
32613;SDS011;19031;51.400;6.770;2023-05-10T08:01:22;20.20;;;9.40;;
32613;SDS011;19031;51.400;6.770;2023-05-10T08:03:48;21.33;;;9.38;;
32613;SDS011;19031;51.400;6.770;2023-05-10T08:06:16;25.25;;;8.98;;
32613;SDS011;19031;51.400;6.770;2023-05-10T08:08:43;22.13;;;9.90;;
32613;SDS011;19031;51.400;6.770;2023-05-10T08:11:13;24.50;;;10.43;;
32613;SDS011;19031;51.400;6.770;2023-05-10T08:13:40;23.58;;;10.35;;
32613;SDS011;19031;51.400;6.770;2023-05-10T08:16:05;26.35;;;11.45;;
32613;SDS011;19031;51.400;6.770;2023-05-10T08:18:35;30.70;;;12.52;;
32613;SDS011;19031;51.400;6.770;2023-05-10T08:21:00;34.00;;;11.25;;
32613;SDS011;19031;51.400;6.770;2023-05-10T08:23:26;29.40;;;12.18;;
32613;SDS011;19031;51.400;6.770;2023-05-10T08:25:51;22.08;;;11.02;;
32613;SDS011;19031;51.400;6.770;2023-05-10T08:28:20;24.30;;;10.10;;
32613;SDS011;19031;51.400;6.770;2023-05-10T08:30:45;25.20;;;10.20;;
32613;SDS011;19031;51.400;6.770;2023-05-10T08:33:11;26.60;;;10.43;;
32613;SDS011;19031;51.400;6.770;2023-05-10T08:35:36;23.80;;;9.75;;
32613;SDS011;19031;51.400;6.770;2023-05-10T08:38:04;27.92;;;10.48;;
32613;SDS011;19031;51.400;6.770;2023-05-10T08:40:30;27.88;;;11.13;;
32613;SDS011;19031;51.400;6.770;2023-05-10T08:43:06;29.10;;;10.70;;
32613;SDS011;19031;51.400;6.770;2023-05-10T08:45:36;30.17;;;11.63;;
32613;SDS011;19031;51.400;6.770;2023-05-10T08:48:09;24.20;;;10.55;;
32613;SDS011;19031;51.400;6.770;2023-05-10T08:50:35;26.15;;;10.73;;
32613;SDS011;19031;51.400;6.770;2023-05-10T08:53:03;28.60;;;10.32;;
32613;SDS011;19031;51.400;6.770;2023-05-10T08:55:32;25.42;;;10.60;;
32613;SDS011;19031;51.400;6.770;2023-05-10T08:57:58;28.35;;;10.85;;
32613;SDS011;19031;51.400;6.770;2023-05-10T09:00:25;25.55;;;10.60;;
32613;SDS011;19031;51.400;6.770;2023-05-10T09:02:51;22.33;;;9.77;;
32613;SDS011;19031;51.400;6.770;2023-05-10T09:05:17;19.95;;;9.00;;
32613;SDS011;19031;51.400;6.770;2023-05-10T09:07:43;27.02;;;10.57;;
32613;SDS011;19031;51.400;6.770;2023-05-10T09:10:08;20.45;;;9.85;;
32613;SDS011;19031;51.400;6.770;2023-05-10T09:12:35;21.50;;;9.55;;
32613;SDS011;19031;51.400;6.770;2023-05-10T09:15:01;20.23;;;10.20;;
32613;SDS011;19031;51.400;6.770;2023-05-10T09:17:28;23.02;;;9.30;;
32613;SDS011;19031;51.400;6.770;2023-05-10T09:20:01;20.55;;;9.57;;
32613;SDS011;19031;51.400;6.770;2023-05-10T09:22:29;19.98;;;8.90;;
32613;SDS011;19031;51.400;6.770;2023-05-10T09:25:05;18.70;;;8.52;;
32613;SDS011;19031;51.400;6.770;2023-05-10T09:27:36;16.15;;;8.40;;
32613;SDS011;19031;51.400;6.770;2023-05-10T09:30:03;14.65;;;7.30;;
32613;SDS011;19031;51.400;6.770;2023-05-10T09:32:42;16.55;;;7.47;;
32613;SDS011;19031;51.400;6.770;2023-05-10T09:35:09;17.20;;;7.32;;
32613;SDS011;19031;51.400;6.770;2023-05-10T09:37:40;15.75;;;7.57;;
32613;SDS011;19031;51.400;6.770;2023-05-10T09:40:07;22.42;;;8.95;;
32613;SDS011;19031;51.400;6.770;2023-05-10T09:42:57;15.90;;;7.65;;
32613;SDS011;19031;51.400;6.770;2023-05-10T09:45:29;17.70;;;8.60;;
32613;SDS011;19031;51.400;6.770;2023-05-10T09:47:55;12.27;;;7.43;;
32613;SDS011;19031;51.400;6.770;2023-05-10T09:50:22;20.92;;;7.63;;
32613;SDS011;19031;51.400;6.770;2023-05-10T09:52:55;18.42;;;8.45;;
32613;SDS011;19031;51.400;6.770;2023-05-10T09:55:25;17.58;;;7.78;;
32613;SDS011;19031;51.400;6.770;2023-05-10T09:58:14;14.70;;;7.68;;
32613;SDS011;19031;51.400;6.770;2023-05-10T10:00:44;15.60;;;7.28;;
32613;SDS011;19031;51.400;6.770;2023-05-10T10:03:17;18.02;;;7.47;;
32613;SDS011;19031;51.400;6.770;2023-05-10T10:05:44;16.30;;;7.95;;
32613;SDS011;19031;51.400;6.770;2023-05-10T10:08:15;16.75;;;7.85;;
32613;SDS011;19031;51.400;6.770;2023-05-10T10:10:42;19.55;;;8.55;;
32613;SDS011;19031;51.400;6.770;2023-05-10T10:13:11;16.70;;;7.32;;
32613;SDS011;19031;51.400;6.770;2023-05-10T10:15:37;14.80;;;6.88;;
32613;SDS011;19031;51.400;6.770;2023-05-10T10:18:02;15.05;;;7.45;;
32613;SDS011;19031;51.400;6.770;2023-05-10T10:20:30;13.20;;;7.00;;
32613;SDS011;19031;51.400;6.770;2023-05-10T10:22:55;14.90;;;7.95;;
32613;SDS011;19031;51.400;6.770;2023-05-10T10:25:21;19.48;;;7.72;;
32613;SDS011;19031;51.400;6.770;2023-05-10T10:27:52;19.17;;;8.25;;
32613;SDS011;19031;51.400;6.770;2023-05-10T10:33:06;15.68;;;7.45;;
32613;SDS011;19031;51.400;6.770;2023-05-10T10:35:41;17.95;;;8.27;;
32613;SDS011;19031;51.400;6.770;2023-05-10T10:38:08;15.20;;;8.38;;
32613;SDS011;19031;51.400;6.770;2023-05-10T10:40:34;16.48;;;9.05;;
32613;SDS011;19031;51.400;6.770;2023-05-10T10:43:33;17.08;;;8.35;;
32613;SDS011;19031;51.400;6.770;2023-05-10T10:46:11;21.60;;;8.32;;
32613;SDS011;19031;51.400;6.770;2023-05-10T10:48:47;18.98;;;8.85;;
32613;SDS011;19031;51.400;6.770;2023-05-10T10:51:14;14.32;;;6.63;;
32613;SDS011;19031;51.400;6.770;2023-05-10T10:53:39;17.08;;;8.43;;
32613;SDS011;19031;51.400;6.770;2023-05-10T10:56:09;14.98;;;7.15;;
32613;SDS011;19031;51.400;6.770;2023-05-10T10:58:37;17.95;;;8.32;;
32613;SDS011;19031;51.400;6.770;2023-05-10T11:01:16;16.80;;;8.45;;
32613;SDS011;19031;51.400;6.770;2023-05-10T11:09:00;19.75;;;7.53;;
32613;SDS011;19031;51.400;6.770;2023-05-10T11:11:35;15.25;;;7.22;;
32613;SDS011;19031;51.400;6.770;2023-05-10T11:14:04;11.77;;;5.72;;
32613;SDS011;19031;51.400;6.770;2023-05-10T11:16:44;15.88;;;7.25;;
32613;SDS011;19031;51.400;6.770;2023-05-10T11:19:10;12.23;;;6.38;;
32613;SDS011;19031;51.400;6.770;2023-05-10T11:21:50;14.02;;;6.43;;
32613;SDS011;19031;51.400;6.770;2023-05-10T11:24:17;10.10;;;5.35;;
32613;SDS011;19031;51.400;6.770;2023-05-10T11:26:44;12.82;;;6.38;;
32613;SDS011;19031;51.400;6.770;2023-05-10T11:29:12;11.55;;;5.97;;
32613;SDS011;19031;51.400;6.770;2023-05-10T11:31:42;11.80;;;5.53;;
32613;SDS011;19031;51.400;6.770;2023-05-10T11:34:09;10.93;;;5.85;;
32613;SDS011;19031;51.400;6.770;2023-05-10T11:36:35;12.75;;;5.07;;
32613;SDS011;19031;51.400;6.770;2023-05-10T11:39:01;10.93;;;5.43;;
32613;SDS011;19031;51.400;6.770;2023-05-10T11:41:28;7.60;;;4.95;;
32613;SDS011;19031;51.400;6.770;2023-05-10T11:43:55;7.43;;;4.97;;
32613;SDS011;19031;51.400;6.770;2023-05-10T11:46:23;8.07;;;5.20;;
32613;SDS011;19031;51.400;6.770;2023-05-10T11:48:52;12.27;;;5.15;;
32613;SDS011;19031;51.400;6.770;2023-05-10T11:51:22;6.72;;;4.00;;
32613;SDS011;19031;51.400;6.770;2023-05-10T11:53:50;7.18;;;4.20;;
32613;SDS011;19031;51.400;6.770;2023-05-10T11:56:18;5.78;;;3.65;;
32613;SDS011;19031;51.400;6.770;2023-05-10T11:58:51;5.32;;;3.35;;
32613;SDS011;19031;51.400;6.770;2023-05-10T12:01:21;6.00;;;3.75;;
32613;SDS011;19031;51.400;6.770;2023-05-10T12:03:50;7.68;;;3.85;;
32613;SDS011;19031;51.400;6.770;2023-05-10T12:06:26;10.00;;;3.75;;
32613;SDS011;19031;51.400;6.770;2023-05-10T12:08:56;7.63;;;3.95;;
32613;SDS011;19031;51.400;6.770;2023-05-10T12:11:25;5.90;;;3.22;;
32613;SDS011;19031;51.400;6.770;2023-05-10T12:13:55;6.43;;;3.50;;
32613;SDS011;19031;51.400;6.770;2023-05-10T12:16:22;8.38;;;3.50;;
32613;SDS011;19031;51.400;6.770;2023-05-10T12:18:50;5.45;;;3.30;;
32613;SDS011;19031;51.400;6.770;2023-05-10T12:21:16;7.60;;;3.42;;
32613;SDS011;19031;51.400;6.770;2023-05-10T12:23:46;7.50;;;3.88;;
32613;SDS011;19031;51.400;6.770;2023-05-10T12:26:16;5.32;;;3.65;;
32613;SDS011;19031;51.400;6.770;2023-05-10T12:28:42;5.55;;;3.60;;
32613;SDS011;19031;51.400;6.770;2023-05-10T12:31:07;9.45;;;3.72;;
32613;SDS011;19031;51.400;6.770;2023-05-10T12:33:40;6.78;;;3.88;;
32613;SDS011;19031;51.400;6.770;2023-05-10T12:36:10;5.97;;;3.80;;
32613;SDS011;19031;51.400;6.770;2023-05-10T12:38:38;10.82;;;4.47;;
32613;SDS011;19031;51.400;6.770;2023-05-10T12:41:09;7.10;;;4.20;;
32613;SDS011;19031;51.400;6.770;2023-05-10T12:43:38;5.85;;;3.97;;
32613;SDS011;19031;51.400;6.770;2023-05-10T12:46:14;6.15;;;3.33;;
32613;SDS011;19031;51.400;6.770;2023-05-10T12:48:41;6.18;;;2.92;;
32613;SDS011;19031;51.400;6.770;2023-05-10T12:51:08;6.18;;;2.75;;
32613;SDS011;19031;51.400;6.770;2023-05-10T12:53:36;9.23;;;3.13;;
32613;SDS011;19031;51.400;6.770;2023-05-10T12:56:05;7.20;;;3.38;;
32613;SDS011;19031;51.400;6.770;2023-05-10T12:58:30;7.88;;;3.53;;
32613;SDS011;19031;51.400;6.770;2023-05-10T13:00:57;7.07;;;3.38;;
32613;SDS011;19031;51.400;6.770;2023-05-10T13:03:23;6.30;;;3.28;;
32613;SDS011;19031;51.400;6.770;2023-05-10T13:05:51;4.88;;;4.00;;
32613;SDS011;19031;51.400;6.770;2023-05-10T13:08:20;8.38;;;3.15;;
32613;SDS011;19031;51.400;6.770;2023-05-10T13:10:46;6.35;;;2.50;;
32613;SDS011;19031;51.400;6.770;2023-05-10T13:13:11;4.93;;;2.10;;
32613;SDS011;19031;51.400;6.770;2023-05-10T13:15:37;6.45;;;2.85;;
32613;SDS011;19031;51.400;6.770;2023-05-10T13:18:03;5.00;;;2.65;;
32613;SDS011;19031;51.400;6.770;2023-05-10T13:20:28;5.57;;;2.92;;
32613;SDS011;19031;51.400;6.770;2023-05-10T13:22:54;4.53;;;2.85;;
32613;SDS011;19031;51.400;6.770;2023-05-10T13:25:19;5.30;;;3.28;;
32613;SDS011;19031;51.400;6.770;2023-05-10T13:27:45;6.65;;;3.35;;
32613;SDS011;19031;51.400;6.770;2023-05-10T13:30:10;5.70;;;3.00;;
32613;SDS011;19031;51.400;6.770;2023-05-10T13:32:36;5.18;;;3.78;;
32613;SDS011;19031;51.400;6.770;2023-05-10T13:35:03;5.00;;;2.88;;
32613;SDS011;19031;51.400;6.770;2023-05-10T13:37:30;5.50;;;3.35;;
32613;SDS011;19031;51.400;6.770;2023-05-10T13:39:56;6.35;;;2.90;;
32613;SDS011;19031;51.400;6.770;2023-05-10T13:42:22;6.43;;;3.60;;
32613;SDS011;19031;51.400;6.770;2023-05-10T13:44:50;6.10;;;4.07;;
32613;SDS011;19031;51.400;6.770;2023-05-10T13:47:16;6.28;;;4.10;;
32613;SDS011;19031;51.400;6.770;2023-05-10T13:49:42;8.02;;;4.55;;
32613;SDS011;19031;51.400;6.770;2023-05-10T13:52:07;6.63;;;4.05;;
32613;SDS011;19031;51.400;6.770;2023-05-10T13:54:34;5.32;;;3.97;;
32613;SDS011;19031;51.400;6.770;2023-05-10T13:57:03;6.88;;;4.00;;
32613;SDS011;19031;51.400;6.770;2023-05-10T13:59:29;5.53;;;3.65;;
32613;SDS011;19031;51.400;6.770;2023-05-10T14:01:56;5.15;;;3.65;;
32613;SDS011;19031;51.400;6.770;2023-05-10T14:04:22;10.07;;;3.78;;
32613;SDS011;19031;51.400;6.770;2023-05-10T14:06:48;7.78;;;5.30;;
32613;SDS011;19031;51.400;6.770;2023-05-10T14:09:13;6.97;;;4.45;;
32613;SDS011;19031;51.400;6.770;2023-05-10T14:11:39;7.57;;;3.88;;
32613;SDS011;19031;51.400;6.770;2023-05-10T14:14:08;6.38;;;4.07;;
32613;SDS011;19031;51.400;6.770;2023-05-10T14:16:34;5.15;;;3.50;;
32613;SDS011;19031;51.400;6.770;2023-05-10T14:18:59;9.45;;;3.92;;
32613;SDS011;19031;51.400;6.770;2023-05-10T14:21:25;6.22;;;3.88;;
32613;SDS011;19031;51.400;6.770;2023-05-10T14:23:50;5.38;;;2.72;;
32613;SDS011;19031;51.400;6.770;2023-05-10T14:26:16;5.82;;;4.22;;
32613;SDS011;19031;51.400;6.770;2023-05-10T14:28:42;7.55;;;3.88;;
32613;SDS011;19031;51.400;6.770;2023-05-10T14:31:07;11.07;;;4.20;;
32613;SDS011;19031;51.400;6.770;2023-05-10T14:33:33;7.65;;;5.13;;
32613;SDS011;19031;51.400;6.770;2023-05-10T14:35:58;7.03;;;4.45;;
32613;SDS011;19031;51.400;6.770;2023-05-10T14:38:24;9.07;;;5.80;;
32613;SDS011;19031;51.400;6.770;2023-05-10T14:40:51;9.88;;;5.65;;
32613;SDS011;19031;51.400;6.770;2023-05-10T14:43:19;12.20;;;6.45;;
32613;SDS011;19031;51.400;6.770;2023-05-10T14:45:44;8.70;;;5.55;;
32613;SDS011;19031;51.400;6.770;2023-05-10T14:48:10;12.20;;;6.82;;
32613;SDS011;19031;51.400;6.770;2023-05-10T14:50:40;10.25;;;6.45;;
32613;SDS011;19031;51.400;6.770;2023-05-10T14:53:09;11.77;;;5.93;;
32613;SDS011;19031;51.400;6.770;2023-05-10T14:55:34;10.65;;;6.75;;
32613;SDS011;19031;51.400;6.770;2023-05-10T14:58:01;11.45;;;6.90;;